sensor_id;sensor_type;location;lat;lon;timestamp;P1;durP1;ratioP1;P2;durP2;ratioP2
49834;SDS011;35729;52.090;13.162;2022-12-18T00:00:19;90.00;;;31.85;;
49834;SDS011;35729;52.090;13.162;2022-12-18T00:02:47;90.32;;;31.13;;
49834;SDS011;35729;52.090;13.162;2022-12-18T00:05:16;86.95;;;30.30;;
49834;SDS011;35729;52.090;13.162;2022-12-18T00:07:44;84.72;;;30.25;;
49834;SDS011;35729;52.090;13.162;2022-12-18T00:10:12;86.63;;;29.63;;
49834;SDS011;35729;52.090;13.162;2022-12-18T00:12:46;86.03;;;30.05;;
49834;SDS011;35729;52.090;13.162;2022-12-18T00:15:15;77.40;;;28.92;;
49834;SDS011;35729;52.090;13.162;2022-12-18T00:17:50;69.18;;;26.10;;
49834;SDS011;35729;52.090;13.162;2022-12-18T00:20:18;70.10;;;24.85;;
49834;SDS011;35729;52.090;13.162;2022-12-18T00:22:50;63.45;;;24.08;;
49834;SDS011;35729;52.090;13.162;2022-12-18T00:25:19;66.40;;;24.10;;
49834;SDS011;35729;52.090;13.162;2022-12-18T00:27:50;70.13;;;25.60;;
49834;SDS011;35729;52.090;13.162;2022-12-18T00:30:18;69.30;;;25.17;;
49834;SDS011;35729;52.090;13.162;2022-12-18T00:32:47;77.15;;;26.13;;
49834;SDS011;35729;52.090;13.162;2022-12-18T00:35:15;73.32;;;26.50;;
49834;SDS011;35729;52.090;13.162;2022-12-18T00:37:44;73.32;;;26.35;;
49834;SDS011;35729;52.090;13.162;2022-12-18T00:40:12;81.93;;;27.73;;
49834;SDS011;35729;52.090;13.162;2022-12-18T00:42:41;79.18;;;27.25;;
49834;SDS011;35729;52.090;13.162;2022-12-18T00:45:27;70.35;;;25.52;;
49834;SDS011;35729;52.090;13.162;2022-12-18T00:47:56;71.68;;;25.35;;
49834;SDS011;35729;52.090;13.162;2022-12-18T00:50:25;70.05;;;25.30;;
49834;SDS011;35729;52.090;13.162;2022-12-18T00:52:53;76.75;;;25.92;;
49834;SDS011;35729;52.090;13.162;2022-12-18T00:55:22;69.00;;;25.40;;
49834;SDS011;35729;52.090;13.162;2022-12-18T00:57:50;75.70;;;26.83;;
49834;SDS011;35729;52.090;13.162;2022-12-18T01:00:19;65.95;;;24.92;;
49834;SDS011;35729;52.090;13.162;2022-12-18T01:02:51;73.65;;;26.27;;
49834;SDS011;35729;52.090;13.162;2022-12-18T01:05:19;73.45;;;26.30;;
49834;SDS011;35729;52.090;13.162;2022-12-18T01:07:48;68.05;;;23.73;;
49834;SDS011;35729;52.090;13.162;2022-12-18T01:10:16;63.38;;;24.00;;
49834;SDS011;35729;52.090;13.162;2022-12-18T01:12:45;69.65;;;24.85;;
49834;SDS011;35729;52.090;13.162;2022-12-18T01:15:14;63.75;;;22.77;;
49834;SDS011;35729;52.090;13.162;2022-12-18T01:17:43;65.88;;;24.50;;
49834;SDS011;35729;52.090;13.162;2022-12-18T01:20:14;64.95;;;24.30;;
49834;SDS011;35729;52.090;13.162;2022-12-18T01:22:42;67.07;;;25.27;;
49834;SDS011;35729;52.090;13.162;2022-12-18T01:25:11;71.18;;;24.60;;
49834;SDS011;35729;52.090;13.162;2022-12-18T01:27:39;69.55;;;23.48;;
49834;SDS011;35729;52.090;13.162;2022-12-18T01:30:08;60.38;;;21.58;;
49834;SDS011;35729;52.090;13.162;2022-12-18T01:32:38;68.78;;;24.67;;
49834;SDS011;35729;52.090;13.162;2022-12-18T01:35:07;67.88;;;24.63;;
49834;SDS011;35729;52.090;13.162;2022-12-18T01:37:38;66.85;;;23.88;;
49834;SDS011;35729;52.090;13.162;2022-12-18T01:40:07;66.40;;;23.48;;
49834;SDS011;35729;52.090;13.162;2022-12-18T01:42:37;68.68;;;25.05;;
49834;SDS011;35729;52.090;13.162;2022-12-18T01:45:08;68.75;;;23.20;;
49834;SDS011;35729;52.090;13.162;2022-12-18T01:47:52;67.90;;;22.98;;
49834;SDS011;35729;52.090;13.162;2022-12-18T01:50:23;67.07;;;24.42;;
49834;SDS011;35729;52.090;13.162;2022-12-18T01:53:00;73.63;;;23.83;;
49834;SDS011;35729;52.090;13.162;2022-12-18T01:55:32;72.65;;;26.30;;
49834;SDS011;35729;52.090;13.162;2022-12-18T02:00:34;65.78;;;21.10;;
49834;SDS011;35729;52.090;13.162;2022-12-18T02:03:02;70.28;;;22.98;;
49834;SDS011;35729;52.090;13.162;2022-12-18T02:05:34;78.18;;;26.23;;
49834;SDS011;35729;52.090;13.162;2022-12-18T02:08:13;68.90;;;23.05;;
49834;SDS011;35729;52.090;13.162;2022-12-18T02:10:46;69.88;;;23.67;;
49834;SDS011;35729;52.090;13.162;2022-12-18T02:13:22;73.00;;;24.60;;
49834;SDS011;35729;52.090;13.162;2022-12-18T02:15:58;66.35;;;22.65;;
49834;SDS011;35729;52.090;13.162;2022-12-18T02:18:35;69.55;;;24.20;;
49834;SDS011;35729;52.090;13.162;2022-12-18T02:21:08;69.75;;;24.33;;
49834;SDS011;35729;52.090;13.162;2022-12-18T02:23:50;70.03;;;23.85;;
49834;SDS011;35729;52.090;13.162;2022-12-18T02:26:28;72.15;;;24.92;;
49834;SDS011;35729;52.090;13.162;2022-12-18T02:29:03;68.88;;;22.52;;
49834;SDS011;35729;52.090;13.162;2022-12-18T02:31:36;71.28;;;23.27;;
49834;SDS011;35729;52.090;13.162;2022-12-18T02:34:15;65.07;;;22.75;;
49834;SDS011;35729;52.090;13.162;2022-12-18T02:36:46;71.22;;;24.60;;
49834;SDS011;35729;52.090;13.162;2022-12-18T02:39:16;64.07;;;22.92;;
49834;SDS011;35729;52.090;13.162;2022-12-18T02:41:49;69.30;;;24.02;;
49834;SDS011;35729;52.090;13.162;2022-12-18T02:44:19;68.65;;;24.38;;
49834;SDS011;35729;52.090;13.162;2022-12-18T02:46:48;67.43;;;23.10;;
49834;SDS011;35729;52.090;13.162;2022-12-18T02:49:26;83.68;;;24.92;;
49834;SDS011;35729;52.090;13.162;2022-12-18T02:52:05;74.10;;;24.92;;
49834;SDS011;35729;52.090;13.162;2022-12-18T02:54:47;80.97;;;27.85;;
49834;SDS011;35729;52.090;13.162;2022-12-18T02:57:28;75.78;;;23.60;;
49834;SDS011;35729;52.090;13.162;2022-12-18T03:00:04;66.72;;;23.42;;
49834;SDS011;35729;52.090;13.162;2022-12-18T03:02:37;81.50;;;25.52;;
49834;SDS011;35729;52.090;13.162;2022-12-18T03:05:12;64.18;;;22.27;;
49834;SDS011;35729;52.090;13.162;2022-12-18T03:07:44;76.90;;;24.73;;
49834;SDS011;35729;52.090;13.162;2022-12-18T03:10:18;75.95;;;26.23;;
49834;SDS011;35729;52.090;13.162;2022-12-18T03:12:56;83.57;;;27.83;;
49834;SDS011;35729;52.090;13.162;2022-12-18T03:15:36;83.35;;;26.67;;
49834;SDS011;35729;52.090;13.162;2022-12-18T03:18:10;79.65;;;27.45;;
49834;SDS011;35729;52.090;13.162;2022-12-18T03:20:41;81.90;;;29.25;;
49834;SDS011;35729;52.090;13.162;2022-12-18T03:23:13;78.57;;;26.40;;
49834;SDS011;35729;52.090;13.162;2022-12-18T03:25:45;89.50;;;28.08;;
49834;SDS011;35729;52.090;13.162;2022-12-18T03:28:20;75.50;;;26.80;;
49834;SDS011;35729;52.090;13.162;2022-12-18T03:30:50;82.10;;;27.02;;
49834;SDS011;35729;52.090;13.162;2022-12-18T03:33:25;85.57;;;28.77;;
49834;SDS011;35729;52.090;13.162;2022-12-18T03:35:56;91.85;;;28.98;;
49834;SDS011;35729;52.090;13.162;2022-12-18T03:38:24;79.75;;;27.15;;
49834;SDS011;35729;52.090;13.162;2022-12-18T03:40:56;89.85;;;28.45;;
49834;SDS011;35729;52.090;13.162;2022-12-18T03:43:36;91.03;;;28.80;;
49834;SDS011;35729;52.090;13.162;2022-12-18T03:46:15;81.30;;;28.00;;
49834;SDS011;35729;52.090;13.162;2022-12-18T03:48:52;83.15;;;29.45;;
49834;SDS011;35729;52.090;13.162;2022-12-18T03:51:28;81.88;;;29.90;;
49834;SDS011;35729;52.090;13.162;2022-12-18T03:54:05;78.00;;;28.33;;
49834;SDS011;35729;52.090;13.162;2022-12-18T03:56:36;78.63;;;29.92;;
49834;SDS011;35729;52.090;13.162;2022-12-18T03:59:11;82.68;;;27.70;;
49834;SDS011;35729;52.090;13.162;2022-12-18T04:01:42;77.40;;;28.27;;
49834;SDS011;35729;52.090;13.162;2022-12-18T04:04:15;74.73;;;29.10;;
49834;SDS011;35729;52.090;13.162;2022-12-18T04:06:46;77.78;;;29.77;;
49834;SDS011;35729;52.090;13.162;2022-12-18T04:09:17;76.10;;;26.67;;
49834;SDS011;35729;52.090;13.162;2022-12-18T04:11:47;75.38;;;28.45;;
49834;SDS011;35729;52.090;13.162;2022-12-18T04:14:18;70.47;;;26.20;;
49834;SDS011;35729;52.090;13.162;2022-12-18T04:16:47;77.15;;;28.15;;
49834;SDS011;35729;52.090;13.162;2022-12-18T04:19:15;85.97;;;29.75;;
49834;SDS011;35729;52.090;13.162;2022-12-18T04:21:43;86.75;;;31.58;;
49834;SDS011;35729;52.090;13.162;2022-12-18T04:24:12;75.93;;;28.42;;
49834;SDS011;35729;52.090;13.162;2022-12-18T04:26:40;70.95;;;28.00;;
49834;SDS011;35729;52.090;13.162;2022-12-18T04:29:09;77.38;;;29.00;;
49834;SDS011;35729;52.090;13.162;2022-12-18T04:31:40;74.60;;;28.92;;
49834;SDS011;35729;52.090;13.162;2022-12-18T04:34:08;70.85;;;28.13;;
49834;SDS011;35729;52.090;13.162;2022-12-18T04:36:37;82.85;;;30.48;;
49834;SDS011;35729;52.090;13.162;2022-12-18T04:39:05;76.95;;;29.73;;
49834;SDS011;35729;52.090;13.162;2022-12-18T04:41:34;85.35;;;31.10;;
49834;SDS011;35729;52.090;13.162;2022-12-18T04:44:02;78.88;;;30.60;;
49834;SDS011;35729;52.090;13.162;2022-12-18T04:46:34;80.70;;;30.27;;
49834;SDS011;35729;52.090;13.162;2022-12-18T04:49:05;76.10;;;29.55;;
49834;SDS011;35729;52.090;13.162;2022-12-18T04:51:35;77.10;;;29.83;;
49834;SDS011;35729;52.090;13.162;2022-12-18T04:54:04;84.22;;;30.75;;
49834;SDS011;35729;52.090;13.162;2022-12-18T04:56:32;75.00;;;31.10;;
49834;SDS011;35729;52.090;13.162;2022-12-18T04:59:01;74.05;;;28.48;;
49834;SDS011;35729;52.090;13.162;2022-12-18T05:01:29;83.70;;;31.45;;
49834;SDS011;35729;52.090;13.162;2022-12-18T05:03:58;84.90;;;31.73;;
49834;SDS011;35729;52.090;13.162;2022-12-18T05:06:29;82.82;;;31.02;;
49834;SDS011;35729;52.090;13.162;2022-12-18T05:08:58;87.75;;;31.42;;
49834;SDS011;35729;52.090;13.162;2022-12-18T05:11:26;73.43;;;29.00;;
49834;SDS011;35729;52.090;13.162;2022-12-18T05:13:55;73.95;;;28.80;;
49834;SDS011;35729;52.090;13.162;2022-12-18T05:16:23;85.32;;;31.52;;
49834;SDS011;35729;52.090;13.162;2022-12-18T05:18:52;87.53;;;32.08;;
49834;SDS011;35729;52.090;13.162;2022-12-18T05:21:20;77.00;;;31.77;;
49834;SDS011;35729;52.090;13.162;2022-12-18T05:23:51;82.55;;;30.63;;
49834;SDS011;35729;52.090;13.162;2022-12-18T05:26:20;69.70;;;27.77;;
49834;SDS011;35729;52.090;13.162;2022-12-18T05:28:48;79.63;;;31.00;;
49834;SDS011;35729;52.090;13.162;2022-12-18T05:31:17;75.20;;;28.75;;
49834;SDS011;35729;52.090;13.162;2022-12-18T05:33:45;76.22;;;29.20;;
49834;SDS011;35729;52.090;13.162;2022-12-18T05:36:17;74.32;;;29.30;;
49834;SDS011;35729;52.090;13.162;2022-12-18T05:38:46;82.72;;;30.88;;
49834;SDS011;35729;52.090;13.162;2022-12-18T05:41:18;74.07;;;29.00;;
49834;SDS011;35729;52.090;13.162;2022-12-18T05:43:46;92.78;;;31.38;;
49834;SDS011;35729;52.090;13.162;2022-12-18T05:46:15;85.82;;;30.08;;
49834;SDS011;35729;52.090;13.162;2022-12-18T05:48:45;79.38;;;31.02;;
49834;SDS011;35729;52.090;13.162;2022-12-18T05:51:16;82.13;;;29.83;;
49834;SDS011;35729;52.090;13.162;2022-12-18T05:53:46;81.18;;;31.52;;
49834;SDS011;35729;52.090;13.162;2022-12-18T05:56:19;76.85;;;32.17;;
49834;SDS011;35729;52.090;13.162;2022-12-18T05:58:50;84.47;;;33.30;;
49834;SDS011;35729;52.090;13.162;2022-12-18T06:01:20;87.75;;;31.75;;
49834;SDS011;35729;52.090;13.162;2022-12-18T06:03:51;81.25;;;30.23;;
49834;SDS011;35729;52.090;13.162;2022-12-18T06:06:20;86.93;;;30.73;;
49834;SDS011;35729;52.090;13.162;2022-12-18T06:08:50;80.10;;;30.52;;
49834;SDS011;35729;52.090;13.162;2022-12-18T06:11:22;88.70;;;31.65;;
49834;SDS011;35729;52.090;13.162;2022-12-18T06:13:52;78.75;;;29.98;;
49834;SDS011;35729;52.090;13.162;2022-12-18T06:16:21;89.35;;;32.65;;
49834;SDS011;35729;52.090;13.162;2022-12-18T06:18:57;82.45;;;29.90;;
49834;SDS011;35729;52.090;13.162;2022-12-18T06:21:25;88.40;;;32.25;;
49834;SDS011;35729;52.090;13.162;2022-12-18T06:23:54;91.65;;;33.72;;
49834;SDS011;35729;52.090;13.162;2022-12-18T06:26:25;94.88;;;33.03;;
49834;SDS011;35729;52.090;13.162;2022-12-18T06:28:53;81.07;;;32.35;;
49834;SDS011;35729;52.090;13.162;2022-12-18T06:31:22;83.18;;;31.88;;
49834;SDS011;35729;52.090;13.162;2022-12-18T06:33:50;82.78;;;30.92;;
49834;SDS011;35729;52.090;13.162;2022-12-18T06:36:19;84.40;;;31.35;;
49834;SDS011;35729;52.090;13.162;2022-12-18T06:38:48;81.18;;;31.55;;
49834;SDS011;35729;52.090;13.162;2022-12-18T06:41:17;85.43;;;31.67;;
49834;SDS011;35729;52.090;13.162;2022-12-18T06:43:50;80.43;;;31.90;;
49834;SDS011;35729;52.090;13.162;2022-12-18T06:46:19;72.30;;;30.52;;
49834;SDS011;35729;52.090;13.162;2022-12-18T06:48:48;78.93;;;31.15;;
49834;SDS011;35729;52.090;13.162;2022-12-18T06:51:18;75.07;;;29.75;;
49834;SDS011;35729;52.090;13.162;2022-12-18T06:53:47;76.22;;;30.63;;
49834;SDS011;35729;52.090;13.162;2022-12-18T06:56:16;80.70;;;31.13;;
49834;SDS011;35729;52.090;13.162;2022-12-18T06:58:44;78.30;;;32.28;;
49834;SDS011;35729;52.090;13.162;2022-12-18T07:01:18;77.35;;;29.73;;
49834;SDS011;35729;52.090;13.162;2022-12-18T07:03:47;72.68;;;30.55;;
49834;SDS011;35729;52.090;13.162;2022-12-18T07:06:20;67.65;;;28.48;;
49834;SDS011;35729;52.090;13.162;2022-12-18T07:08:49;72.93;;;30.00;;
49834;SDS011;35729;52.090;13.162;2022-12-18T07:11:19;75.47;;;27.92;;
49834;SDS011;35729;52.090;13.162;2022-12-18T07:13:49;74.25;;;28.27;;
49834;SDS011;35729;52.090;13.162;2022-12-18T07:16:26;67.35;;;26.92;;
49834;SDS011;35729;52.090;13.162;2022-12-18T07:18:55;72.13;;;29.10;;
49834;SDS011;35729;52.090;13.162;2022-12-18T07:21:24;66.47;;;28.23;;
49834;SDS011;35729;52.090;13.162;2022-12-18T07:23:53;73.38;;;27.88;;
49834;SDS011;35729;52.090;13.162;2022-12-18T07:26:22;71.72;;;29.45;;
49834;SDS011;35729;52.090;13.162;2022-12-18T07:28:53;75.40;;;32.45;;
49834;SDS011;35729;52.090;13.162;2022-12-18T07:31:23;72.97;;;32.38;;
49834;SDS011;35729;52.090;13.162;2022-12-18T07:33:55;68.18;;;29.45;;
49834;SDS011;35729;52.090;13.162;2022-12-18T07:36:24;66.53;;;27.67;;
49834;SDS011;35729;52.090;13.162;2022-12-18T07:38:52;63.28;;;27.17;;
49834;SDS011;35729;52.090;13.162;2022-12-18T07:41:21;69.45;;;29.23;;
49834;SDS011;35729;52.090;13.162;2022-12-18T07:43:49;69.47;;;30.10;;
49834;SDS011;35729;52.090;13.162;2022-12-18T07:46:18;66.72;;;28.63;;
49834;SDS011;35729;52.090;13.162;2022-12-18T07:48:46;68.88;;;29.38;;
49834;SDS011;35729;52.090;13.162;2022-12-18T07:51:18;67.43;;;30.42;;
49834;SDS011;35729;52.090;13.162;2022-12-18T07:53:46;70.47;;;29.30;;
49834;SDS011;35729;52.090;13.162;2022-12-18T07:56:15;69.50;;;27.48;;
49834;SDS011;35729;52.090;13.162;2022-12-18T07:58:47;68.03;;;27.90;;
49834;SDS011;35729;52.090;13.162;2022-12-18T08:01:15;74.25;;;29.42;;
49834;SDS011;35729;52.090;13.162;2022-12-18T08:03:44;70.72;;;29.67;;
49834;SDS011;35729;52.090;13.162;2022-12-18T08:06:12;68.60;;;28.38;;
49834;SDS011;35729;52.090;13.162;2022-12-18T08:08:43;67.28;;;28.45;;
49834;SDS011;35729;52.090;13.162;2022-12-18T08:11:12;64.40;;;28.13;;
49834;SDS011;35729;52.090;13.162;2022-12-18T08:13:40;60.30;;;26.00;;
49834;SDS011;35729;52.090;13.162;2022-12-18T08:16:08;63.10;;;26.17;;
49834;SDS011;35729;52.090;13.162;2022-12-18T08:18:37;64.90;;;26.13;;
49834;SDS011;35729;52.090;13.162;2022-12-18T08:21:09;68.47;;;26.90;;
49834;SDS011;35729;52.090;13.162;2022-12-18T08:23:37;61.67;;;27.00;;
49834;SDS011;35729;52.090;13.162;2022-12-18T08:26:09;61.47;;;27.38;;
49834;SDS011;35729;52.090;13.162;2022-12-18T08:28:38;56.03;;;23.30;;
49834;SDS011;35729;52.090;13.162;2022-12-18T08:31:07;55.17;;;25.42;;
49834;SDS011;35729;52.090;13.162;2022-12-18T08:33:36;55.53;;;23.67;;
49834;SDS011;35729;52.090;13.162;2022-12-18T08:36:06;60.45;;;26.73;;
49834;SDS011;35729;52.090;13.162;2022-12-18T08:38:37;57.42;;;26.35;;
49834;SDS011;35729;52.090;13.162;2022-12-18T08:41:06;58.08;;;26.35;;
49834;SDS011;35729;52.090;13.162;2022-12-18T08:43:39;57.67;;;26.33;;
49834;SDS011;35729;52.090;13.162;2022-12-18T08:46:20;53.40;;;25.40;;
49834;SDS011;35729;52.090;13.162;2022-12-18T08:48:50;59.40;;;26.73;;
49834;SDS011;35729;52.090;13.162;2022-12-18T08:51:20;69.38;;;29.23;;
49834;SDS011;35729;52.090;13.162;2022-12-18T08:53:48;58.67;;;27.50;;
49834;SDS011;35729;52.090;13.162;2022-12-18T08:56:19;57.75;;;27.67;;
49834;SDS011;35729;52.090;13.162;2022-12-18T08:58:50;63.03;;;29.05;;
49834;SDS011;35729;52.090;13.162;2022-12-18T09:01:20;66.43;;;28.10;;
49834;SDS011;35729;52.090;13.162;2022-12-18T09:03:49;59.70;;;27.75;;
49834;SDS011;35729;52.090;13.162;2022-12-18T09:06:18;52.63;;;25.42;;
49834;SDS011;35729;52.090;13.162;2022-12-18T09:08:48;47.38;;;22.60;;
49834;SDS011;35729;52.090;13.162;2022-12-18T09:11:21;44.60;;;21.70;;
49834;SDS011;35729;52.090;13.162;2022-12-18T09:13:50;53.38;;;24.63;;
49834;SDS011;35729;52.090;13.162;2022-12-18T09:16:20;39.40;;;20.88;;
49834;SDS011;35729;52.090;13.162;2022-12-18T09:18:49;46.17;;;20.98;;
49834;SDS011;35729;52.090;13.162;2022-12-18T09:21:19;56.45;;;25.33;;
49834;SDS011;35729;52.090;13.162;2022-12-18T09:23:49;58.53;;;26.25;;
49834;SDS011;35729;52.090;13.162;2022-12-18T09:26:21;53.58;;;27.75;;
49834;SDS011;35729;52.090;13.162;2022-12-18T09:28:50;57.80;;;28.48;;
49834;SDS011;35729;52.090;13.162;2022-12-18T09:31:19;53.70;;;28.48;;
49834;SDS011;35729;52.090;13.162;2022-12-18T09:33:49;56.40;;;27.25;;
49834;SDS011;35729;52.090;13.162;2022-12-18T09:36:17;48.33;;;22.08;;
49834;SDS011;35729;52.090;13.162;2022-12-18T09:38:46;47.08;;;23.58;;
49834;SDS011;35729;52.090;13.162;2022-12-18T09:41:17;44.60;;;22.75;;
49834;SDS011;35729;52.090;13.162;2022-12-18T09:44:03;46.85;;;21.38;;
49834;SDS011;35729;52.090;13.162;2022-12-18T09:46:40;41.35;;;21.45;;
49834;SDS011;35729;52.090;13.162;2022-12-18T09:51:44;52.55;;;22.13;;
49834;SDS011;35729;52.090;13.162;2022-12-18T09:54:16;47.45;;;23.67;;
49834;SDS011;35729;52.090;13.162;2022-12-18T09:56:52;48.08;;;22.50;;
49834;SDS011;35729;52.090;13.162;2022-12-18T09:59:23;44.10;;;21.13;;
49834;SDS011;35729;52.090;13.162;2022-12-18T10:01:54;50.00;;;21.88;;
49834;SDS011;35729;52.090;13.162;2022-12-18T10:04:23;48.22;;;22.77;;
49834;SDS011;35729;52.090;13.162;2022-12-18T10:06:53;48.30;;;22.70;;
49834;SDS011;35729;52.090;13.162;2022-12-18T10:09:28;53.38;;;23.13;;
49834;SDS011;35729;52.090;13.162;2022-12-18T10:12:08;58.35;;;27.73;;
49834;SDS011;35729;52.090;13.162;2022-12-18T10:14:46;41.42;;;20.80;;
49834;SDS011;35729;52.090;13.162;2022-12-18T10:17:23;42.83;;;21.33;;
49834;SDS011;35729;52.090;13.162;2022-12-18T10:20:12;50.25;;;21.25;;
49834;SDS011;35729;52.090;13.162;2022-12-18T10:22:47;41.20;;;22.48;;
49834;SDS011;35729;52.090;13.162;2022-12-18T10:25:22;42.65;;;19.95;;
49834;SDS011;35729;52.090;13.162;2022-12-18T10:27:57;41.25;;;20.85;;
49834;SDS011;35729;52.090;13.162;2022-12-18T10:30:35;39.72;;;19.75;;
49834;SDS011;35729;52.090;13.162;2022-12-18T10:33:03;44.25;;;21.45;;
49834;SDS011;35729;52.090;13.162;2022-12-18T10:35:32;35.83;;;19.13;;
49834;SDS011;35729;52.090;13.162;2022-12-18T10:38:02;41.17;;;20.17;;
49834;SDS011;35729;52.090;13.162;2022-12-18T10:40:36;46.72;;;22.55;;
49834;SDS011;35729;52.090;13.162;2022-12-18T10:43:22;44.15;;;22.38;;
49834;SDS011;35729;52.090;13.162;2022-12-18T10:46:04;38.90;;;20.30;;
49834;SDS011;35729;52.090;13.162;2022-12-18T10:48:47;41.72;;;21.40;;
49834;SDS011;35729;52.090;13.162;2022-12-18T10:51:20;40.03;;;19.15;;
49834;SDS011;35729;52.090;13.162;2022-12-18T10:53:52;43.88;;;22.60;;
49834;SDS011;35729;52.090;13.162;2022-12-18T10:56:24;42.95;;;21.00;;
49834;SDS011;35729;52.090;13.162;2022-12-18T10:59:00;41.00;;;20.85;;
49834;SDS011;35729;52.090;13.162;2022-12-18T11:01:32;42.65;;;21.70;;
49834;SDS011;35729;52.090;13.162;2022-12-18T11:04:16;41.17;;;20.42;;
49834;SDS011;35729;52.090;13.162;2022-12-18T11:06:54;42.05;;;21.85;;
49834;SDS011;35729;52.090;13.162;2022-12-18T11:09:24;38.97;;;20.42;;
49834;SDS011;35729;52.090;13.162;2022-12-18T11:11:55;43.70;;;20.98;;
49834;SDS011;35729;52.090;13.162;2022-12-18T11:14:28;40.80;;;20.92;;
49834;SDS011;35729;52.090;13.162;2022-12-18T11:16:59;39.30;;;19.50;;
49834;SDS011;35729;52.090;13.162;2022-12-18T11:19:30;36.08;;;20.17;;
49834;SDS011;35729;52.090;13.162;2022-12-18T11:22:17;37.85;;;19.63;;
49834;SDS011;35729;52.090;13.162;2022-12-18T11:24:52;36.80;;;19.27;;
49834;SDS011;35729;52.090;13.162;2022-12-18T11:27:23;36.95;;;18.70;;
49834;SDS011;35729;52.090;13.162;2022-12-18T11:30:06;41.80;;;19.00;;
49834;SDS011;35729;52.090;13.162;2022-12-18T11:32:37;38.90;;;20.27;;
49834;SDS011;35729;52.090;13.162;2022-12-18T11:35:14;42.55;;;20.90;;
49834;SDS011;35729;52.090;13.162;2022-12-18T11:37:48;38.03;;;19.08;;
49834;SDS011;35729;52.090;13.162;2022-12-18T11:40:25;34.50;;;19.17;;
49834;SDS011;35729;52.090;13.162;2022-12-18T11:43:00;37.50;;;19.05;;
49834;SDS011;35729;52.090;13.162;2022-12-18T11:45:38;37.97;;;19.27;;
49834;SDS011;35729;52.090;13.162;2022-12-18T11:48:13;39.92;;;22.50;;
49834;SDS011;35729;52.090;13.162;2022-12-18T11:50:48;41.60;;;19.85;;
49834;SDS011;35729;52.090;13.162;2022-12-18T11:53:19;38.58;;;18.88;;
49834;SDS011;35729;52.090;13.162;2022-12-18T11:55:56;37.15;;;18.40;;
49834;SDS011;35729;52.090;13.162;2022-12-18T11:58:38;47.20;;;23.20;;
49834;SDS011;35729;52.090;13.162;2022-12-18T12:01:27;42.35;;;22.70;;
49834;SDS011;35729;52.090;13.162;2022-12-18T12:04:11;38.75;;;20.58;;
49834;SDS011;35729;52.090;13.162;2022-12-18T12:09:29;37.72;;;18.30;;
49834;SDS011;35729;52.090;13.162;2022-12-18T12:12:10;39.17;;;20.17;;
49834;SDS011;35729;52.090;13.162;2022-12-18T12:14:52;40.75;;;21.42;;
49834;SDS011;35729;52.090;13.162;2022-12-18T12:17:36;36.50;;;20.08;;
49834;SDS011;35729;52.090;13.162;2022-12-18T12:20:13;41.97;;;20.08;;
49834;SDS011;35729;52.090;13.162;2022-12-18T12:22:49;35.15;;;19.00;;
49834;SDS011;35729;52.090;13.162;2022-12-18T12:25:30;36.28;;;18.45;;
49834;SDS011;35729;52.090;13.162;2022-12-18T12:28:10;35.88;;;20.35;;
49834;SDS011;35729;52.090;13.162;2022-12-18T12:30:50;36.47;;;18.88;;
49834;SDS011;35729;52.090;13.162;2022-12-18T12:33:35;35.88;;;20.27;;
49834;SDS011;35729;52.090;13.162;2022-12-18T12:36:12;38.53;;;19.80;;
49834;SDS011;35729;52.090;13.162;2022-12-18T12:45:13;41.78;;;23.20;;
49834;SDS011;35729;52.090;13.162;2022-12-18T12:47:48;36.08;;;22.48;;
49834;SDS011;35729;52.090;13.162;2022-12-18T12:50:21;36.42;;;21.13;;
49834;SDS011;35729;52.090;13.162;2022-12-18T12:52:51;39.33;;;21.88;;
49834;SDS011;35729;52.090;13.162;2022-12-18T12:55:21;36.75;;;19.60;;
49834;SDS011;35729;52.090;13.162;2022-12-18T12:57:55;33.47;;;19.08;;
49834;SDS011;35729;52.090;13.162;2022-12-18T13:00:30;36.13;;;20.15;;
49834;SDS011;35729;52.090;13.162;2022-12-18T13:03:08;36.63;;;20.00;;
49834;SDS011;35729;52.090;13.162;2022-12-18T13:05:47;32.75;;;19.73;;
49834;SDS011;35729;52.090;13.162;2022-12-18T13:08:22;38.10;;;20.80;;
49834;SDS011;35729;52.090;13.162;2022-12-18T13:13:49;33.85;;;18.27;;
49834;SDS011;35729;52.090;13.162;2022-12-18T13:16:18;33.70;;;17.43;;
49834;SDS011;35729;52.090;13.162;2022-12-18T13:18:48;35.42;;;17.90;;
49834;SDS011;35729;52.090;13.162;2022-12-18T13:21:23;30.73;;;18.80;;
49834;SDS011;35729;52.090;13.162;2022-12-18T13:23:55;36.72;;;20.10;;
49834;SDS011;35729;52.090;13.162;2022-12-18T13:26:29;40.90;;;21.60;;
49834;SDS011;35729;52.090;13.162;2022-12-18T13:29:02;33.67;;;18.67;;
49834;SDS011;35729;52.090;13.162;2022-12-18T13:34:36;34.00;;;20.55;;
49834;SDS011;35729;52.090;13.162;2022-12-18T13:46:18;36.97;;;19.42;;
49834;SDS011;35729;52.090;13.162;2022-12-18T13:48:53;37.85;;;20.02;;
49834;SDS011;35729;52.090;13.162;2022-12-18T13:51:25;37.38;;;21.15;;
49834;SDS011;35729;52.090;13.162;2022-12-18T13:53:55;31.85;;;18.92;;
49834;SDS011;35729;52.090;13.162;2022-12-18T13:56:27;35.88;;;19.25;;
49834;SDS011;35729;52.090;13.162;2022-12-18T13:59:14;43.05;;;23.20;;
49834;SDS011;35729;52.090;13.162;2022-12-18T14:01:46;41.00;;;22.60;;
49834;SDS011;35729;52.090;13.162;2022-12-18T14:04:22;35.78;;;21.77;;
49834;SDS011;35729;52.090;13.162;2022-12-18T14:06:54;38.78;;;21.95;;
49834;SDS011;35729;52.090;13.162;2022-12-18T14:09:26;30.35;;;17.98;;
49834;SDS011;35729;52.090;13.162;2022-12-18T14:11:56;34.60;;;19.92;;
49834;SDS011;35729;52.090;13.162;2022-12-18T14:14:40;33.78;;;19.15;;
49834;SDS011;35729;52.090;13.162;2022-12-18T14:17:11;36.20;;;19.67;;
49834;SDS011;35729;52.090;13.162;2022-12-18T14:19:41;39.30;;;19.92;;
49834;SDS011;35729;52.090;13.162;2022-12-18T14:22:13;34.28;;;20.45;;
49834;SDS011;35729;52.090;13.162;2022-12-18T14:24:44;33.47;;;18.83;;
49834;SDS011;35729;52.090;13.162;2022-12-18T14:27:19;35.55;;;19.40;;
49834;SDS011;35729;52.090;13.162;2022-12-18T14:29:53;37.08;;;21.17;;
49834;SDS011;35729;52.090;13.162;2022-12-18T14:32:21;32.03;;;18.58;;
49834;SDS011;35729;52.090;13.162;2022-12-18T14:34:50;36.97;;;20.10;;
49834;SDS011;35729;52.090;13.162;2022-12-18T14:37:21;37.88;;;19.58;;
49834;SDS011;35729;52.090;13.162;2022-12-18T14:39:54;32.15;;;18.52;;
49834;SDS011;35729;52.090;13.162;2022-12-18T14:42:32;31.65;;;17.40;;
49834;SDS011;35729;52.090;13.162;2022-12-18T14:48:05;39.83;;;21.15;;
49834;SDS011;35729;52.090;13.162;2022-12-18T14:50:34;30.67;;;18.70;;
49834;SDS011;35729;52.090;13.162;2022-12-18T14:53:03;38.85;;;19.13;;
49834;SDS011;35729;52.090;13.162;2022-12-18T14:55:32;41.40;;;22.10;;
49834;SDS011;35729;52.090;13.162;2022-12-18T14:58:00;37.35;;;20.20;;
49834;SDS011;35729;52.090;13.162;2022-12-18T15:00:30;39.05;;;20.75;;
49834;SDS011;35729;52.090;13.162;2022-12-18T15:03:01;36.92;;;20.50;;
49834;SDS011;35729;52.090;13.162;2022-12-18T15:05:35;40.13;;;21.98;;
49834;SDS011;35729;52.090;13.162;2022-12-18T15:10:58;39.67;;;20.60;;